Time;durP1;ratioP1;P1;durP2;ratioP2;P2;SDS_P1;SDS_P2;PMS_P1;PMS_P2;Temp;Humidity;BMP_temperature;BMP_pressure;BME280_temperature;BME280_humidity;BME280_pressure;Samples;Min_cycle;Max_cycle;Signal;HPM_P1;HPM_P2
2022/08/17 00:02:21;;;;;;;8.63;6.88;;;21.90;99.90;;;;;;5014616;28;20196;-65
2022/08/17 00:04:48;;;;;;;9.48;8.68;;;21.90;99.90;;;;;;5014480;28;20638;-66
2022/08/17 00:07:13;;;;;;;8.80;7.90;;;21.90;99.90;;;;;;5014418;28;20169;-64
2022/08/17 00:09:39;;;;;;;8.48;7.75;;;21.90;99.90;;;;;;5014689;28;20179;-66
2022/08/17 00:12:05;;;;;;;7.95;7.35;;;21.90;99.90;;;;;;5014196;28;20223;-66
2022/08/17 00:14:30;;;;;;;8.18;7.55;;;21.80;99.90;;;;;;5014329;28;20200;-66
2022/08/17 00:16:57;;;;;;;8.00;7.30;;;21.70;99.90;;;;;;5014091;28;20165;-66
2022/08/17 00:19:24;;;;;;;8.85;7.38;;;21.70;99.90;;;;;;5014594;28;20255;-66
2022/08/17 00:21:54;;;;;;;8.50;7.82;;;21.70;99.90;;;;;;5013206;28;20608;-66
2022/08/17 00:24:20;;;;;;;9.98;9.27;;;21.70;99.90;;;;;;5014065;28;20180;-65
2022/08/17 00:26:46;;;;;;;8.30;7.55;;;21.70;99.90;;;;;;5014313;28;20238;-66
2022/08/17 00:29:12;;;;;;;8.27;7.57;;;21.70;99.90;;;;;;5013981;28;20180;-66
2022/08/17 00:31:38;;;;;;;9.75;8.57;;;21.70;99.90;;;;;;5014331;28;20207;-65
2022/08/17 00:34:05;;;;;;;9.68;8.90;;;21.80;99.90;;;;;;5013730;28;20216;-65
2022/08/17 00:36:30;;;;;;;10.70;9.82;;;21.70;99.90;;;;;;5014222;28;20177;-64
2022/08/17 00:38:56;;;;;;;10.57;9.55;;;21.70;99.90;;;;;;5013757;28;20540;-64
2022/08/17 00:41:24;;;;;;;11.10;9.13;;;21.60;99.90;;;;;;5013915;28;20251;-64
2022/08/17 00:43:52;;;;;;;11.80;10.88;;;21.60;99.90;;;;;;5013721;28;20513;-64
2022/08/17 00:46:20;;;;;;;10.82;9.80;;;21.60;99.90;;;;;;5013858;28;20173;-66
2022/08/17 00:48:46;;;;;;;8.85;8.13;;;21.60;99.90;;;;;;5013807;28;20240;-66
2022/08/17 00:51:32;;;;;;;8.40;7.70;;;21.60;99.90;;;;;;5013445;28;20549;-65
2022/08/17 00:54:03;;;;;;;9.05;8.35;;;21.60;99.90;;;;;;5013508;28;20196;-64
2022/08/17 00:56:38;;;;;;;8.57;7.78;;;21.60;99.90;;;;;;4994225;28;20173;-65
2022/08/17 00:59:06;;;;;;;8.98;8.15;;;21.60;99.90;;;;;;4994299;28;20177;-63
2022/08/17 01:01:32;;;;;;;10.02;9.02;;;21.50;99.90;;;;;;4992993;28;20200;-64
2022/08/17 01:04:00;;;;;;;9.38;8.57;;;21.50;99.90;;;;;;4993805;28;20180;-63
2022/08/17 01:06:27;;;;;;;9.93;9.23;;;21.50;99.90;;;;;;5012216;28;20176;-65
2022/08/17 01:08:54;;;;;;;11.00;10.00;;;21.50;99.90;;;;;;5013523;28;20176;-69
2022/08/17 01:11:20;;;;;;;9.07;8.23;;;21.40;99.90;;;;;;5013104;28;20180;-65
2022/08/17 01:13:46;;;;;;;9.05;8.30;;;21.30;99.90;;;;;;5013155;28;20283;-66
2022/08/17 01:16:17;;;;;;;10.35;9.45;;;21.30;99.90;;;;;;5013179;28;20177;-66
2022/08/17 01:18:45;;;;;;;9.85;9.15;;;21.20;99.90;;;;;;5013453;28;20172;-65
2022/08/17 01:21:32;;;;;;;11.55;10.55;;;21.10;99.90;;;;;;5012804;28;20544;-66
2022/08/17 01:23:58;;;;;;;9.07;8.17;;;21.00;99.90;;;;;;5013096;28;20176;-66
2022/08/17 01:26:24;;;;;;;9.93;9.02;;;20.90;99.90;;;;;;5012846;28;20222;-65
2022/08/17 01:28:50;;;;;;;10.13;9.33;;;20.80;99.90;;;;;;5013385;28;20207;-65
2022/08/17 01:31:16;;;;;;;10.17;9.27;;;20.70;99.90;;;;;;5012547;28;20191;-65
2022/08/17 01:33:42;;;;;;;12.57;11.50;;;20.60;99.90;;;;;;5012804;28;20669;-64
2022/08/17 01:36:07;;;;;;;12.30;10.83;;;20.40;99.90;;;;;;5012754;28;20176;-66
2022/08/17 01:38:34;;;;;;;10.37;8.60;;;20.30;99.90;;;;;;5013111;28;20645;-65
2022/08/17 01:41:04;;;;;;;11.15;9.07;;;20.20;99.90;;;;;;5012523;28;20212;-64
2022/08/17 01:43:38;;;;;;;10.30;9.45;;;20.20;99.90;;;;;;5012947;28;20208;-66
2022/08/17 01:46:04;;;;;;;9.35;8.38;;;20.30;99.90;;;;;;5012465;28;20303;-65
2022/08/17 01:48:32;;;;;;;10.23;8.97;;;20.30;99.90;;;;;;5012815;28;20254;-64
2022/08/17 01:50:58;;;;;;;9.65;8.82;;;20.20;99.90;;;;;;5012392;28;20191;-65
2022/08/17 01:53:31;;;;;;;10.20;9.37;;;20.10;99.90;;;;;;5012375;28;20693;-65
2022/08/17 01:56:01;;;;;;;9.63;8.73;;;20.20;99.90;;;;;;5012588;28;20267;-65
2022/08/17 01:58:26;;;;;;;9.37;8.57;;;20.20;99.90;;;;;;5012874;28;20176;-64
2022/08/17 02:00:53;;;;;;;16.07;14.97;;;20.20;99.90;;;;;;5012495;28;20267;-65
2022/08/17 02:03:20;;;;;;;10.77;9.73;;;20.30;99.90;;;;;;5012216;28;20219;-64
2022/08/17 02:05:47;;;;;;;9.07;8.23;;;20.30;99.90;;;;;;5012285;28;20250;-65
2022/08/17 02:08:14;;;;;;;9.93;9.03;;;20.30;99.90;;;;;;5012402;28;20191;-65
2022/08/17 02:10:39;;;;;;;9.27;8.47;;;20.30;99.90;;;;;;5012201;28;20184;-65
2022/08/17 02:13:05;;;;;;;9.53;8.73;;;20.30;99.90;;;;;;5012011;28;20253;-65
2022/08/17 02:15:33;;;;;;;11.10;10.07;;;20.20;99.90;;;;;;5012195;28;20512;-65
2022/08/17 02:18:00;;;;;;;9.67;8.90;;;20.10;99.90;;;;;;5010645;28;20231;-66
2022/08/17 02:20:26;;;;;;;9.93;9.03;;;20.10;99.90;;;;;;5011495;28;20466;-65
2022/08/17 02:22:51;;;;;;;9.75;8.75;;;20.10;99.90;;;;;;5012107;28;20315;-65
2022/08/17 02:25:19;;;;;;;9.50;8.87;;;20.10;99.90;;;;;;5011551;28;20168;-65
2022/08/17 02:27:45;;;;;;;14.83;10.40;;;20.10;99.90;;;;;;5012294;28;20243;-66
2022/08/17 02:30:13;;;;;;;11.27;10.17;;;20.00;99.90;;;;;;5011860;28;20675;-65
2022/08/17 02:32:39;;;;;;;10.43;9.60;;;20.00;99.90;;;;;;5012100;28;20290;-64
2022/08/17 02:35:06;;;;;;;12.43;11.23;;;20.00;99.90;;;;;;5011292;28;20210;-65
2022/08/17 02:37:31;;;;;;;9.17;7.73;;;20.00;99.90;;;;;;5011815;28;20168;-64
2022/08/17 02:39:58;;;;;;;8.60;8.00;;;20.10;99.90;;;;;;5011866;28;20179;-65
2022/08/17 02:42:30;;;;;;;8.03;7.33;;;20.10;99.90;;;;;;5011989;28;20211;-64
2022/08/17 02:44:56;;;;;;;9.00;8.20;;;20.10;99.90;;;;;;5011270;28;20187;-65
2022/08/17 02:47:23;;;;;;;7.97;7.37;;;20.10;99.90;;;;;;5011827;28;20642;-66
2022/08/17 02:49:49;;;;;;;7.90;7.20;;;20.10;99.90;;;;;;5011394;28;20242;-65
2022/08/17 02:52:14;;;;;;;7.33;6.63;;;20.20;99.90;;;;;;5011733;28;20200;-65
2022/08/17 02:54:40;;;;;;;7.47;6.87;;;20.20;99.90;;;;;;5011929;28;20542;-64
2022/08/17 02:57:06;;;;;;;11.83;10.77;;;20.30;99.90;;;;;;5011768;28;20164;-65
2022/08/17 02:59:31;;;;;;;7.37;6.77;;;20.30;99.90;;;;;;5011698;28;20545;-65
2022/08/17 03:01:57;;;;;;;7.30;6.60;;;20.40;99.90;;;;;;5012037;28;20192;-65
2022/08/17 03:04:22;;;;;;;7.60;6.90;;;20.40;99.90;;;;;;5011226;28;20263;-65
2022/08/17 03:06:48;;;;;;;9.37;7.43;;;20.50;99.90;;;;;;5011885;28;20335;-66
2022/08/17 03:09:15;;;;;;;8.93;8.17;;;20.60;99.90;;;;;;5011278;28;20734;-65
2022/08/17 03:11:41;;;;;;;13.32;12.38;;;20.60;99.90;;;;;;5011777;28;20197;-65
2022/08/17 03:14:07;;;;;;;9.37;8.47;;;20.60;99.90;;;;;;5011097;28;20298;-65
2022/08/17 03:16:33;;;;;;;10.50;8.93;;;20.70;99.90;;;;;;5011574;28;20255;-65
2022/08/17 03:18:58;;;;;;;9.25;8.65;;;20.60;99.90;;;;;;5011302;28;20242;-65
2022/08/17 03:21:24;;;;;;;17.30;16.30;;;20.70;99.90;;;;;;5011275;28;20175;-66
2022/08/17 03:23:50;;;;;;;10.07;7.72;;;20.70;99.90;;;;;;5011379;28;20262;-65
2022/08/17 03:26:15;;;;;;;9.07;8.30;;;20.60;99.90;;;;;;5011477;28;20180;-64
2022/08/17 03:28:41;;;;;;;8.77;8.00;;;20.40;99.90;;;;;;5011407;28;20630;-64
2022/08/17 03:31:06;;;;;;;9.10;8.30;;;20.40;99.90;;;;;;5013998;28;20176;-65
2022/08/17 03:33:32;;;;;;;8.90;8.30;;;20.40;99.90;;;;;;5014500;28;20338;-65
2022/08/17 03:35:59;;;;;;;11.43;10.57;;;20.40;99.90;;;;;;5015197;28;20173;-66
2022/08/17 03:38:25;;;;;;;7.87;7.27;;;20.30;99.90;;;;;;5015307;28;20644;-65
2022/08/17 03:40:52;;;;;;;8.37;7.57;;;20.30;99.90;;;;;;5015278;28;20172;-65
2022/08/17 03:43:19;;;;;;;6.83;6.10;;;20.30;99.90;;;;;;5014540;28;20218;-65
2022/08/17 03:57:04;;;;;;;7.20;6.50;;;20.20;99.90;;;;;;5015284;28;20665;-65
2022/08/17 03:59:30;;;;;;;8.00;7.30;;;20.10;99.90;;;;;;5014738;28;20176;-65
2022/08/17 04:02:00;;;;;;;7.30;6.60;;;20.10;99.90;;;;;;5014444;28;20235;-65
2022/08/17 04:04:25;;;;;;;7.37;6.67;;;20.10;99.90;;;;;;5014668;28;20180;-65
2022/08/17 04:06:51;;;;;;;7.53;6.60;;;20.10;99.90;;;;;;5014568;28;20180;-65
2022/08/17 04:09:17;;;;;;;6.93;6.30;;;20.10;99.90;;;;;;5014534;28;20195;-65
2022/08/17 04:11:43;;;;;;;6.27;5.73;;;20.20;99.90;;;;;;5014409;28;20195;-65
2022/08/17 04:14:09;;;;;;;9.23;7.67;;;20.20;99.90;;;;;;5014040;28;20546;-66
2022/08/17 04:16:35;;;;;;;6.40;5.90;;;20.20;99.90;;;;;;5014808;28;20179;-66
2022/08/17 04:19:03;;;;;;;8.30;5.70;;;20.30;99.90;;;;;;5014524;28;20173;-65
2022/08/17 04:21:28;;;;;;;9.70;8.07;;;20.30;99.90;;;;;;5012434;28;20191;-64
2022/08/17 04:23:54;;;;;;;7.90;7.30;;;20.40;99.90;;;;;;5014312;28;20180;-66
2022/08/17 04:26:21;;;;;;;10.97;10.17;;;20.50;99.90;;;;;;5014252;28;20199;-65
2022/08/17 04:28:47;;;;;;;10.80;10.10;;;20.50;99.90;;;;;;5014219;28;20520;-64
2022/08/17 04:31:13;;;;;;;7.83;7.07;;;20.60;99.90;;;;;;5014079;28;20183;-64
2022/08/17 04:33:42;;;;;;;7.22;6.32;;;20.60;99.90;;;;;;5014121;28;20282;-64
2022/08/17 04:36:08;;;;;;;7.03;6.40;;;20.70;99.90;;;;;;5014280;28;20172;-64
2022/08/17 04:38:37;;;;;;;8.50;7.80;;;20.70;99.90;;;;;;5014117;28;20208;-66
2022/08/17 04:43:54;;;;;;;6.93;6.32;;;20.80;99.90;;;;;;5013739;28;20198;-66
2022/08/17 04:46:23;;;;;;;7.03;6.50;;;20.80;99.90;;;;;;5013988;28;20267;-64
2022/08/17 04:48:51;;;;;;;8.13;7.57;;;20.90;99.90;;;;;;5014010;28;20188;-65
2022/08/17 04:51:29;;;;;;;6.45;5.80;;;20.90;99.90;;;;;;5013692;28;20180;-65
2022/08/17 04:53:58;;;;;;;6.82;6.32;;;21.00;99.90;;;;;;5013234;28;20286;-64
2022/08/17 04:56:25;;;;;;;10.90;10.05;;;21.00;99.90;;;;;;5013895;28;20184;-64
2022/08/17 04:58:54;;;;;;;7.78;7.22;;;21.00;99.90;;;;;;5013615;28;20180;-65
2022/08/17 05:01:22;;;;;;;9.90;9.25;;;21.00;99.90;;;;;;5013548;28;20664;-64
2022/08/17 05:03:47;;;;;;;11.80;11.10;;;21.00;99.90;;;;;;5013280;28;20637;-63
2022/08/17 05:06:13;;;;;;;8.98;7.97;;;21.10;99.90;;;;;;5013660;28;20172;-63
2022/08/17 05:08:39;;;;;;;8.50;7.88;;;21.10;99.90;;;;;;5013324;28;20176;-64
2022/08/17 05:11:05;;;;;;;8.48;7.78;;;21.10;99.90;;;;;;5013389;28;20255;-64
2022/08/17 05:13:31;;;;;;;8.25;7.53;;;21.10;99.90;;;;;;5012949;28;20287;-63
2022/08/17 05:16:01;;;;;;;8.82;8.15;;;21.10;99.90;;;;;;5013497;28;20164;-64
2022/08/17 05:18:28;;;;;;;7.80;7.28;;;21.20;99.90;;;;;;5013293;28;20192;-65
2022/08/17 05:20:55;;;;;;;8.40;7.75;;;21.30;99.90;;;;;;5013427;28;20204;-65
2022/08/17 05:23:22;;;;;;;11.35;10.57;;;21.40;99.90;;;;;;5012938;28;20228;-64
2022/08/17 05:25:52;;;;;;;7.13;6.63;;;21.50;99.90;;;;;;5012857;28;20275;-65
2022/08/17 05:28:19;;;;;;;6.07;5.47;;;21.50;99.90;;;;;;5013270;28;20174;-65
2022/08/17 05:30:46;;;;;;;7.07;6.47;;;21.50;99.90;;;;;;5011608;28;20237;-64
2022/08/17 05:33:23;;;;;;;6.45;5.85;;;21.70;99.90;;;;;;5012912;28;20200;-64
2022/08/17 05:35:53;;;;;;;10.57;6.28;;;21.80;99.90;;;;;;5012841;28;20271;-65
2022/08/17 05:38:21;;;;;;;6.70;6.10;;;21.80;99.90;;;;;;5013034;28;20218;-63
2022/08/17 05:40:47;;;;;;;12.00;11.30;;;21.80;99.90;;;;;;5012835;28;20638;-64
2022/08/17 05:43:14;;;;;;;8.57;7.97;;;21.70;99.90;;;;;;5012068;28;20203;-65
2022/08/17 05:45:46;;;;;;;11.63;10.80;;;21.60;99.90;;;;;;5012680;28;20175;-64
2022/08/17 05:48:12;;;;;;;7.00;6.50;;;21.60;99.90;;;;;;5010991;28;20258;-64
2022/08/17 05:50:50;;;;;;;9.48;8.88;;;21.60;99.90;;;;;;5015817;28;20259;-65
2022/08/17 05:53:36;;;;;;;7.72;7.13;;;21.70;99.90;;;;;;5022345;28;20200;-65
2022/08/17 05:56:10;;;;;;;8.73;8.02;;;21.90;99.90;;;;;;5012560;28;20188;-65
2022/08/17 05:58:59;;;;;;;7.75;7.10;;;22.00;99.90;;;;;;5012319;28;20175;-65
2022/08/17 06:01:40;;;;;;;12.13;7.15;;;22.20;99.90;;;;;;5009444;28;20595;-66
2022/08/17 06:04:15;;;;;;;9.50;8.52;;;22.30;99.90;;;;;;5011837;28;20168;-65
2022/08/17 06:06:51;;;;;;;7.10;6.38;;;22.40;99.90;;;;;;5012504;28;20179;-64
2022/08/17 06:09:28;;;;;;;11.95;5.95;;;22.60;99.90;;;;;;5010752;28;20667;-64
2022/08/17 06:11:57;;;;;;;8.73;7.68;;;22.80;99.90;;;;;;5012377;28;20239;-65
2022/08/17 06:14:57;;;;;;;8.13;6.60;;;22.90;99.90;;;;;;5012023;28;20203;-64
2022/08/17 06:17:25;;;;;;;12.38;7.65;;;22.90;99.90;;;;;;5011541;28;20716;-66
2022/08/17 06:20:12;;;;;;;8.88;6.68;;;23.10;99.90;;;;;;5012411;28;20255;-67
2022/08/17 06:23:03;;;;;;;10.02;7.30;;;23.30;99.90;;;;;;5011225;28;20211;-66
2022/08/17 06:25:35;;;;;;;7.97;6.90;;;23.40;99.90;;;;;;5011936;28;20579;-66
2022/08/17 06:28:06;;;;;;;8.77;7.03;;;23.50;99.90;;;;;;5011904;28;20193;-65
2022/08/17 06:30:43;;;;;;;7.97;6.97;;;23.70;99.90;;;;;;5010748;28;20172;-66
2022/08/17 06:33:16;;;;;;;6.78;5.68;;;23.80;99.90;;;;;;5011654;28;20204;-66
2022/08/17 06:36:01;;;;;;;9.48;5.80;;;23.90;99.90;;;;;;5011549;28;20172;-66
2022/08/17 06:38:40;;;;;;;8.18;6.53;;;23.90;99.90;;;;;;5011954;28;20637;-66
2022/08/17 06:41:25;;;;;;;9.57;5.55;;;24.00;99.90;;;;;;4992246;28;20647;-66
2022/08/17 06:44:18;;;;;;;7.38;5.45;;;24.00;99.90;;;;;;4993971;28;20184;-66
2022/08/17 06:46:49;;;;;;;7.10;6.40;;;24.10;99.90;;;;;;5011775;28;20187;-66
2022/08/17 06:49:24;;;;;;;8.52;7.57;;;24.20;99.90;;;;;;5011029;28;20179;-66
2022/08/17 06:52:11;;;;;;;9.23;6.30;;;24.30;99.90;;;;;;5001639;28;20204;-66
2022/08/17 06:54:56;;;;;;;11.98;6.78;;;24.40;99.90;;;;;;5011497;28;20298;-66
2022/08/17 06:57:24;;;;;;;7.75;5.90;;;24.60;99.90;;;;;;5011563;28;20176;-66
2022/08/17 07:00:01;;;;;;;6.13;5.53;;;24.80;99.90;;;;;;5015716;28;20172;-66
2022/08/17 07:02:47;;;;;;;9.20;5.35;;;24.90;99.90;;;;;;5031524;28;20197;-66
2022/08/17 07:05:15;;;;;;;7.75;7.20;;;25.00;99.90;;;;;;5021496;28;20180;-65
2022/08/17 07:08:00;;;;;;;8.20;6.93;;;25.10;99.90;;;;;;5014955;28;20254;-65
2022/08/17 07:10:28;;;;;;;7.65;6.95;;;25.10;99.90;;;;;;5015456;28;20176;-66
2022/08/17 07:13:12;;;;;;;7.18;6.25;;;25.00;99.90;;;;;;5015336;28;20227;-65
2022/08/17 07:15:41;;;;;;;9.27;6.30;;;25.00;99.90;;;;;;5015036;28;20176;-67
2022/08/17 07:18:08;;;;;;;8.05;7.00;;;24.90;99.90;;;;;;5015530;28;20572;-67
2022/08/17 07:20:37;;;;;;;11.13;6.40;;;25.00;99.90;;;;;;5015342;28;20180;-67
2022/08/17 07:23:16;;;;;;;6.90;6.35;;;25.00;99.90;;;;;;5015160;28;20203;-66
2022/08/17 07:25:41;;;;;;;9.63;7.63;;;24.80;99.90;;;;;;5014932;28;20180;-65
2022/08/17 07:28:07;;;;;;;7.88;7.07;;;24.70;99.90;;;;;;5015214;28;20176;-66
2022/08/17 07:30:39;;;;;;;7.82;6.95;;;24.70;99.90;;;;;;5015295;28;20781;-66
2022/08/17 07:33:16;;;;;;;11.27;7.13;;;24.80;99.90;;;;;;5026424;28;20211;-64
2022/08/17 07:35:45;;;;;;;18.52;8.05;;;24.90;99.90;;;;;;5024463;28;20176;-65
2022/08/17 07:38:12;;;;;;;9.48;6.88;;;24.90;99.90;;;;;;5015009;28;20176;-64
2022/08/17 07:40:43;;;;;;;7.60;7.00;;;24.90;99.90;;;;;;5014884;28;20207;-65
2022/08/17 07:43:43;;;;;;;8.35;7.55;;;24.90;99.90;;;;;;5014779;28;20219;-65
2022/08/17 07:49:02;;;;;;;8.25;7.50;;;24.50;99.90;;;;;;5014796;28;20676;-65
2022/08/17 07:51:35;;;;;;;11.88;8.27;;;24.50;99.90;;;;;;5015015;28;20570;-64
2022/08/17 07:54:21;;;;;;;8.73;7.93;;;24.50;99.90;;;;;;5014471;28;20282;-64
2022/08/17 07:56:50;;;;;;;8.77;7.97;;;24.50;99.90;;;;;;5014915;28;20184;-64
2022/08/17 07:59:36;;;;;;;9.30;7.55;;;24.50;99.90;;;;;;5014579;28;20596;-64
2022/08/17 08:02:30;;;;;;;10.52;8.60;;;24.70;99.90;;;;;;5014393;28;20196;-64
2022/08/17 08:05:21;;;;;;;16.55;15.25;;;24.90;99.90;;;;;;5012553;28;20182;-65
2022/08/17 08:07:46;;;;;;;9.02;8.13;;;25.00;99.90;;;;;;4995015;28;20188;-66
2022/08/17 08:10:31;;;;;;;10.07;7.95;;;25.00;99.90;;;;;;4995857;28;20654;-65
2022/08/17 08:13:08;;;;;;;10.38;8.20;;;24.90;99.90;;;;;;5014395;28;20196;-66
2022/08/17 08:15:41;;;;;;;11.48;10.27;;;24.70;99.90;;;;;;5013989;28;20539;-65
2022/08/17 08:18:35;;;;;;;9.68;8.70;;;24.70;99.90;;;;;;5014513;28;20172;-65
2022/08/17 08:21:09;;;;;;;9.82;8.82;;;24.60;99.90;;;;;;5013851;28;20534;-66
2022/08/17 08:24:02;;;;;;;11.50;10.30;;;24.50;99.90;;;;;;5014118;28;20199;-65
2022/08/17 08:26:45;;;;;;;11.05;8.23;;;24.40;99.90;;;;;;5014118;28;20188;-65
2022/08/17 08:29:17;;;;;;;13.52;8.40;;;24.30;99.90;;;;;;5014166;28;20180;-65
2022/08/17 08:31:57;;;;;;;14.40;8.85;;;24.10;99.90;;;;;;5012606;28;20283;-65
2022/08/17 08:34:23;;;;;;;11.90;8.32;;;24.00;99.90;;;;;;5013853;28;20295;-66
2022/08/17 08:37:19;;;;;;;9.65;8.65;;;23.90;99.90;;;;;;5013840;28;20172;-65
2022/08/17 08:39:56;;;;;;;9.68;8.00;;;23.80;99.90;;;;;;5014424;28;20168;-65
2022/08/17 08:42:40;;;;;;;10.00;8.13;;;23.80;99.90;;;;;;4994287;28;20945;-65
2022/08/17 08:45:26;;;;;;;10.05;9.13;;;23.70;99.90;;;;;;4995759;28;20177;-65
2022/08/17 08:48:18;;;;;;;9.35;8.38;;;23.70;99.90;;;;;;5013947;28;20168;-66
2022/08/17 08:51:13;;;;;;;9.30;8.38;;;23.70;99.90;;;;;;5002574;28;20283;-65
2022/08/17 08:54:02;;;;;;;9.65;8.75;;;23.70;99.90;;;;;;4993707;28;20232;-64
2022/08/17 08:56:41;;;;;;;10.15;9.15;;;23.80;99.90;;;;;;5005852;28;20765;-65
2022/08/17 08:59:19;;;;;;;9.60;8.70;;;23.80;99.90;;;;;;5013427;28;20537;-64
2022/08/17 09:02:06;;;;;;;9.95;9.05;;;23.90;99.90;;;;;;5013477;28;20195;-65
2022/08/17 09:04:47;;;;;;;9.10;8.20;;;23.90;99.90;;;;;;5013286;28;20172;-65
2022/08/17 09:08:11;;;;;;;9.02;8.20;;;24.00;99.90;;;;;;5013111;28;20649;-66
2022/08/17 09:11:02;;;;;;;9.02;8.25;;;24.20;99.90;;;;;;5001376;28;20196;-65
2022/08/17 09:13:56;;;;;;;14.48;8.35;;;24.30;99.90;;;;;;5012912;28;20468;-64
2022/08/17 09:16:28;;;;;;;9.38;8.52;;;24.50;99.90;;;;;;5013298;28;20176;-66
2022/08/17 09:19:02;;;;;;;9.63;8.43;;;24.60;99.90;;;;;;5013434;28;20531;-65
2022/08/17 09:21:43;;;;;;;8.88;8.07;;;24.50;99.90;;;;;;5012842;28;20642;-65
2022/08/17 09:24:33;;;;;;;9.30;8.50;;;24.50;99.90;;;;;;5013001;28;20529;-65
2022/08/17 09:27:05;;;;;;;10.77;9.73;;;24.60;99.90;;;;;;5012866;28;20618;-66
2022/08/17 09:29:34;;;;;;;9.55;8.75;;;24.70;99.90;;;;;;5013051;28;20178;-65
2022/08/17 09:32:03;;;;;;;11.35;10.43;;;24.80;99.90;;;;;;5012507;28;20243;-64
2022/08/17 09:34:36;;;;;;;10.57;9.50;;;24.80;99.90;;;;;;5012686;28;20203;-65
2022/08/17 09:37:26;;;;;;;14.00;9.50;;;24.70;99.90;;;;;;5012628;28;20180;-64
2022/08/17 09:40:10;;;;;;;10.73;9.63;;;24.50;99.90;;;;;;5013043;28;20172;-64
2022/08/17 09:42:46;;;;;;;11.38;9.18;;;24.30;99.90;;;;;;5012514;28;20211;-64
2022/08/17 09:45:49;;;;;;;11.38;9.90;;;24.00;99.90;;;;;;5012388;28;20164;-64
2022/08/17 09:48:24;;;;;;;10.82;9.73;;;23.80;99.90;;;;;;5012494;28;20184;-64
2022/08/17 09:51:24;;;;;;;10.70;9.70;;;23.90;99.90;;;;;;5012943;28;20168;-64
2022/08/17 09:53:50;;;;;;;12.05;10.85;;;23.90;99.90;;;;;;4992870;28;20204;-65
2022/08/17 09:56:24;;;;;;;13.55;12.27;;;23.80;99.90;;;;;;4995158;28;20251;-64
2022/08/17 09:58:55;;;;;;;12.38;10.90;;;23.70;99.90;;;;;;5012992;28;20247;-66
2022/08/17 10:01:34;;;;;;;12.02;10.73;;;23.50;99.90;;;;;;5012266;28;20177;-64
2022/08/17 10:04:34;;;;;;;12.32;11.15;;;23.40;99.90;;;;;;5010969;28;20171;-65
2022/08/17 10:07:12;;;;;;;12.55;11.25;;;23.20;99.90;;;;;;5012385;28;20729;-65
2022/08/17 10:09:54;;;;;;;11.65;10.55;;;23.10;99.90;;;;;;5010951;28;20203;-65
2022/08/17 10:12:46;;;;;;;13.48;12.30;;;23.00;99.90;;;;;;5012155;28;20200;-66
2022/08/17 10:15:15;;;;;;;12.68;11.38;;;23.10;99.90;;;;;;5011726;28;20207;-65
2022/08/17 10:18:06;;;;;;;11.63;10.68;;;23.10;99.90;;;;;;5012103;28;20203;-66
2022/08/17 10:20:46;;;;;;;11.25;10.15;;;23.10;99.90;;;;;;5012600;28;20266;-65
2022/08/17 10:26:13;;;;;;;11.95;10.60;;;22.80;99.90;;;;;;5012468;28;20591;-65
2022/08/17 10:28:51;;;;;;;15.45;12.98;;;22.30;99.90;;;;;;5012516;28;20169;-67
2022/08/17 10:31:49;;;;;;;15.13;13.48;;;21.80;99.90;;;;;;5011704;28;20214;-65
2022/08/17 10:34:17;;;;;;;15.52;14.02;;;21.30;99.90;;;;;;5010868;28;20204;-66
2022/08/17 10:37:11;;;;;;;16.47;15.07;;;20.90;99.90;;;;;;5021668;28;20547;-66
2022/08/17 10:40:12;;;;;;;16.30;14.70;;;20.80;99.90;;;;;;5011099;28;20508;-65
2022/08/17 10:43:17;;;;;;;15.50;13.90;;;20.70;99.90;;;;;;5012004;28;20272;-67
2022/08/17 10:45:59;;;;;;;16.88;15.15;;;20.70;99.90;;;;;;5011733;28;20180;-66
2022/08/17 10:48:31;;;;;;;16.85;15.15;;;20.80;99.90;;;;;;4992480;28;20686;-66
2022/08/17 10:51:28;;;;;;;21.53;19.43;;;21.10;99.90;;;;;;5008727;28;20566;-66
2022/08/17 10:53:56;;;;;;;18.55;16.45;;;21.30;99.90;;;;;;5011139;28;20219;-66
2022/08/17 10:56:24;;;;;;;16.08;14.40;;;21.60;99.90;;;;;;5011906;28;20630;-65
2022/08/17 10:58:56;;;;;;;18.17;16.42;;;21.80;99.90;;;;;;5011883;28;20534;-66
2022/08/17 11:01:31;;;;;;;16.30;14.75;;;22.20;99.90;;;;;;5011726;28;20250;-66
2022/08/17 11:04:02;;;;;;;14.52;13.13;;;22.70;99.90;;;;;;5011326;28;20214;-65
2022/08/17 11:06:35;;;;;;;13.77;12.27;;;23.30;99.90;;;;;;5010609;28;20184;-66
2022/08/17 11:09:18;;;;;;;14.32;12.77;;;24.00;99.90;;;;;;5011614;28;20184;-65
2022/08/17 11:12:10;;;;;;;13.93;12.63;;;24.80;99.90;;;;;;5011447;28;20204;-65
2022/08/17 11:14:59;;;;;;;14.07;12.73;;;25.50;99.90;;;;;;4991418;28;20287;-65
2022/08/17 11:17:35;;;;;;;15.25;13.68;;;26.50;99.90;;;;;;4997001;28;20188;-65
2022/08/17 11:20:38;;;;;;;13.00;11.60;;;27.30;99.90;;;;;;5011885;28;20646;-67
2022/08/17 11:23:25;;;;;;;13.93;12.60;;;28.10;99.90;;;;;;4991970;28;20287;-67
2022/08/17 11:25:56;;;;;;;14.45;12.95;;;28.90;99.90;;;;;;4994243;28;20177;-67
2022/08/17 11:28:34;;;;;;;14.38;12.27;;;29.60;99.90;;;;;;5011706;28;20184;-66
2022/08/17 11:31:04;;;;;;;14.23;12.85;;;30.10;99.90;;;;;;5011358;28;20257;-66
2022/08/17 11:33:35;;;;;;;14.32;12.93;;;29.80;99.90;;;;;;5009722;28;20226;-64
2022/08/17 11:36:22;;;;;;;15.20;13.60;;;29.40;99.90;;;;;;5011396;28;20168;-65
2022/08/17 11:38:59;;;;;;;14.93;12.88;;;29.50;99.90;;;;;;5011515;28;20180;-65
2022/08/17 11:41:33;;;;;;;13.95;12.65;;;29.40;99.90;;;;;;5011100;28;20180;-66
2022/08/17 11:44:37;;;;;;;15.63;14.13;;;29.40;99.90;;;;;;5011041;28;20741;-66
2022/08/17 11:53:37;;;;;;;15.80;13.07;;;29.00;99.90;;;;;;4997409;28;20763;-67
2022/08/17 11:56:30;;;;;;;14.48;12.98;;;29.00;99.90;;;;;;5013735;28;20179;-65
2022/08/17 11:58:57;;;;;;;12.52;11.32;;;28.70;99.90;;;;;;5014924;28;20642;-65
2022/08/17 12:01:27;;;;;;;13.77;12.25;;;28.50;99.90;;;;;;5014439;28;20660;-64
2022/08/17 12:04:02;;;;;;;13.48;12.07;;;28.40;99.90;;;;;;5014060;28;20188;-66
2022/08/17 12:06:33;;;;;;;14.50;13.00;;;28.60;99.90;;;;;;5014806;28;20184;-67
2022/08/17 12:09:11;;;;;;;14.38;12.88;;;28.60;99.90;;;;;;5014790;28;20669;-66
2022/08/17 12:11:48;;;;;;;14.35;12.88;;;28.40;99.90;;;;;;5014564;28;20307;-66
2022/08/17 12:14:21;;;;;;;13.35;11.88;;;28.60;99.90;;;;;;5014154;28;20196;-66
2022/08/17 12:17:02;;;;;;;13.68;12.35;;;28.90;99.90;;;;;;5014786;28;20204;-64
2022/08/17 12:19:29;;;;;;;15.70;11.75;;;29.10;99.90;;;;;;5014392;28;20191;-64
2022/08/17 12:22:03;;;;;;;13.73;12.38;;;29.40;99.90;;;;;;5012421;28;20196;-65
2022/08/17 12:24:58;;;;;;;17.05;15.48;;;29.40;99.90;;;;;;5032437;28;20187;-64
2022/08/17 12:27:34;;;;;;;14.07;12.60;;;29.00;99.90;;;;;;5034051;28;20183;-65
2022/08/17 12:30:05;;;;;;;15.32;13.73;;;28.90;99.90;;;;;;5033948;28;20214;-65
2022/08/17 12:32:34;;;;;;;15.27;13.85;;;28.40;99.90;;;;;;5033905;28;20195;-64
2022/08/17 12:35:01;;;;;;;14.45;13.02;;;27.90;99.90;;;;;;5033405;28;20211;-65
2022/08/17 12:37:32;;;;;;;14.95;13.35;;;27.80;99.90;;;;;;5033633;28;20188;-64
2022/08/17 12:40:15;;;;;;;15.05;13.65;;;28.20;99.90;;;;;;5033794;28;20179;-65
2022/08/17 12:43:00;;;;;;;15.15;13.75;;;28.50;99.90;;;;;;5028788;28;20200;-65
2022/08/17 12:45:30;;;;;;;17.35;15.65;;;28.80;99.90;;;;;;5013595;28;20172;-65
2022/08/17 12:48:08;;;;;;;17.20;15.55;;;28.50;99.90;;;;;;5013754;28;20202;-64
2022/08/17 12:50:43;;;;;;;15.88;13.93;;;28.20;99.90;;;;;;5013996;28;20183;-64
2022/08/17 12:53:14;;;;;;;16.67;15.02;;;27.70;99.90;;;;;;5013435;28;20294;-65
2022/08/17 12:55:41;;;;;;;19.83;14.73;;;27.40;99.90;;;;;;5013010;28;20180;-65
2022/08/17 12:58:11;;;;;;;16.02;14.43;;;27.20;99.90;;;;;;5013740;28;20336;-65
2022/08/17 13:00:41;;;;;;;17.70;15.57;;;27.10;99.90;;;;;;5013871;28;20251;-64
2022/08/17 13:03:15;;;;;;;14.35;12.95;;;27.00;99.90;;;;;;5011436;28;20200;-64
2022/08/17 13:06:05;;;;;;;14.90;13.25;;;26.90;99.90;;;;;;5013212;28;20181;-64
2022/08/17 13:08:37;;;;;;;15.30;13.80;;;26.90;99.90;;;;;;4999547;28;20222;-64
2022/08/17 13:11:15;;;;;;;15.00;13.55;;;26.80;99.90;;;;;;5013084;28;20180;-64
2022/08/17 13:13:44;;;;;;;15.20;13.70;;;27.00;99.90;;;;;;5012861;28;20203;-65
2022/08/17 13:16:13;;;;;;;14.20;12.80;;;27.30;99.90;;;;;;5012681;28;20180;-65
2022/08/17 13:18:47;;;;;;;13.32;12.02;;;27.30;99.90;;;;;;5012176;28;20490;-63
2022/08/17 13:21:20;;;;;;;16.90;11.52;;;27.80;99.90;;;;;;5012932;28;20175;-65
2022/08/17 13:24:06;;;;;;;14.73;13.23;;;28.80;99.90;;;;;;5013070;28;20191;-63
2022/08/17 13:26:53;;;;;;;16.98;15.23;;;29.70;99.90;;;;;;5012978;28;20187;-63
2022/08/17 13:29:24;;;;;;;16.98;15.27;;;29.60;99.90;;;;;;5011803;28;20172;-64
2022/08/17 13:32:15;;;;;;;15.45;13.73;;;29.40;99.90;;;;;;5017152;28;20199;-64
2022/08/17 13:34:48;;;;;;;13.52;12.23;;;29.70;99.90;;;;;;5032352;28;20673;-65
2022/08/17 13:37:25;;;;;;;15.23;13.23;;;30.20;99.90;;;;;;4993255;28;20177;-66
2022/08/17 13:40:09;;;;;;;14.23;12.82;;;30.10;99.90;;;;;;4993672;28;20255;-65